createdAt,value
2019-01-25T00:01:09.164Z,93.36
2019-01-25T00:03:39.866Z,94.30
2019-01-25T00:06:19.551Z,94.09
2019-01-25T00:08:49.439Z,94.13
2019-01-25T00:11:19.977Z,94.04
2019-01-25T00:13:52.466Z,94.18
2019-01-25T00:16:24.067Z,93.91
2019-01-25T00:18:55.282Z,93.55
2019-01-25T00:21:26.032Z,92.79
2019-01-25T00:23:58.810Z,92.64
2019-01-25T00:26:38.307Z,93.00
2019-01-25T00:29:09.420Z,92.84
2019-01-25T00:31:45.481Z,92.52
2019-01-25T00:34:31.477Z,92.14
2019-01-25T00:37:09.222Z,92.29
2019-01-25T00:39:41.454Z,92.31
2019-01-25T00:42:17.413Z,91.95
2019-01-25T00:44:49.053Z,92.48
2019-01-25T00:47:19.852Z,91.54
2019-01-25T00:49:49.700Z,91.49
2019-01-25T00:52:28.594Z,91.68
2019-01-25T00:55:00.295Z,91.29
2019-01-25T00:57:31.238Z,91.30
2019-01-25T01:00:04.830Z,91.82
2019-01-25T01:02:54.209Z,92.37
2019-01-25T01:05:27.206Z,93.18
2019-01-25T01:07:59.297Z,93.50
2019-01-25T01:10:36.422Z,93.62
2019-01-25T01:13:08.798Z,93.99
2019-01-25T01:15:39.117Z,94.88
2019-01-25T01:18:09.216Z,94.95
2019-01-25T01:20:42.027Z,94.93
2019-01-25T01:23:11.934Z,94.55
2019-01-25T01:25:44.220Z,94.29
2019-01-25T01:28:17.612Z,94.98
2019-01-25T01:30:47.751Z,95.17
2019-01-25T01:33:29.552Z,95.40
2019-01-25T01:36:02.003Z,94.74
2019-01-25T01:38:34.244Z,94.67
2019-01-25T01:41:04.906Z,94.71
2019-01-25T01:43:39.002Z,94.55
2019-01-25T01:46:20.196Z,94.77
2019-01-25T01:48:53.314Z,94.56
2019-01-25T01:51:27.457Z,94.32
2019-01-25T01:54:09.645Z,93.97
2019-01-25T01:56:39.583Z,92.87
2019-01-25T01:59:09.511Z,93.02
2019-01-25T02:01:57.775Z,92.58
2019-01-25T02:04:38.501Z,93.07
2019-01-25T02:07:19.501Z,92.73
2019-01-25T02:09:54.153Z,92.60
2019-01-25T02:12:27.391Z,92.99
2019-01-25T02:14:57.402Z,92.53
2019-01-25T02:17:27.634Z,93.01
2019-01-25T02:19:57.603Z,93.81
2019-01-25T02:22:31.003Z,94.14
2019-01-25T02:25:17.646Z,94.73
2019-01-25T02:27:48.546Z,95.11
2019-01-25T02:30:30.282Z,94.97
2019-01-25T02:33:01.696Z,94.94
2019-01-25T02:35:42.113Z,95.32
2019-01-25T02:38:18.714Z,95.80
2019-01-25T02:41:05.403Z,96.02
2019-01-25T02:43:52.548Z,96.15
2019-01-25T02:46:40.572Z,96.23
2019-01-25T02:49:28.094Z,96.83
2019-01-25T02:52:16.580Z,96.66
2019-01-25T02:54:52.333Z,96.47
2019-01-25T02:57:43.771Z,96.22
2019-01-25T03:00:24.464Z,96.35
2019-01-25T03:02:59.580Z,95.86
2019-01-25T03:05:31.784Z,96.26
2019-01-25T03:08:09.231Z,96.29
2019-01-25T03:10:56.361Z,96.00
2019-01-25T03:13:26.791Z,95.68
2019-01-25T03:15:56.761Z,96.02
2019-01-25T03:18:26.762Z,96.23
2019-01-25T03:21:00.409Z,96.56
2019-01-25T03:23:41.358Z,96.07
2019-01-25T03:26:12.292Z,96.15
2019-01-25T03:28:44.164Z,96.16
2019-01-25T03:31:28.716Z,96.31
2019-01-25T03:34:08.869Z,96.33
2019-01-25T03:36:57.804Z,96.04
2019-01-25T03:39:46.961Z,96.14
2019-01-25T03:42:30.209Z,96.40
2019-01-25T03:45:03.056Z,96.72
2019-01-25T03:47:39.982Z,96.87
2019-01-25T03:50:18.657Z,96.48
2019-01-25T03:52:53.496Z,96.12
2019-01-25T03:55:37.504Z,95.99
2019-01-25T03:58:13.747Z,96.40
2019-01-25T04:00:53.348Z,95.95
2019-01-25T04:03:30.049Z,95.93
2019-01-25T04:06:03.506Z,95.87
2019-01-25T04:08:47.211Z,95.93
2019-01-25T04:11:21.213Z,96.02
2019-01-25T04:14:03.881Z,95.39
2019-01-25T04:16:42.762Z,95.20
2019-01-25T04:19:27.129Z,95.35
2019-01-25T04:22:18.709Z,95.49
2019-01-25T04:25:02.814Z,95.90
2019-01-25T04:27:36.948Z,96.13
2019-01-25T04:30:24.433Z,96.36
2019-01-25T04:33:02.872Z,96.36
2019-01-25T04:35:43.585Z,96.21
2019-01-25T04:38:23.354Z,96.47
2019-01-25T04:40:56.678Z,95.97
2019-01-25T04:43:32.602Z,95.92
2019-01-25T04:46:06.729Z,95.38
2019-01-25T04:48:43.624Z,95.81
2019-01-25T04:51:16.013Z,96.33
2019-01-25T04:53:46.275Z,96.18
2019-01-25T04:56:17.906Z,95.68
2019-01-25T04:58:50.942Z,95.45
2019-01-25T05:01:41.348Z,95.61
2019-01-25T05:04:21.249Z,95.24
2019-01-25T05:09:39.623Z,94.48
2019-01-25T05:12:19.551Z,93.80
2019-01-25T05:14:59.857Z,92.99
2019-01-25T05:17:35.209Z,92.22
2019-01-25T05:20:16.973Z,91.74
2019-01-25T05:22:57.527Z,90.97
2019-01-25T05:25:29.563Z,91.00
2019-01-25T05:28:10.483Z,89.49
2019-01-25T05:31:00.057Z,89.29
2019-01-25T05:33:39.011Z,90.11
2019-01-25T05:36:09.616Z,89.71
2019-01-25T05:38:47.081Z,89.50
2019-01-25T05:41:28.498Z,89.35
2019-01-25T05:44:01.689Z,89.03
2019-01-25T05:46:37.015Z,89.02
2019-01-25T05:49:10.237Z,88.60
2019-01-25T05:51:47.094Z,88.38
2019-01-25T05:54:28.053Z,88.45
2019-01-25T05:57:19.546Z,88.98
2019-01-25T06:00:09.935Z,88.91
2019-01-25T06:02:55.827Z,88.71
2019-01-25T06:05:28.908Z,88.48
2019-01-25T06:07:59.862Z,88.54
2019-01-25T06:10:32.936Z,89.10
2019-01-25T06:13:17.220Z,89.13
2019-01-25T06:15:49.419Z,88.46
2019-01-25T06:18:20.961Z,88.88
2019-01-25T06:20:55.849Z,88.83
2019-01-25T06:23:33.749Z,88.81
2019-01-25T06:26:13.965Z,89.18
2019-01-25T06:28:49.888Z,89.23
2019-01-25T06:31:33.187Z,89.47
2019-01-25T06:34:08.483Z,88.70
2019-01-25T06:36:40.477Z,89.31
2019-01-25T06:39:11.436Z,89.20
2019-01-25T06:41:53.632Z,89.77
2019-01-25T06:44:28.422Z,90.06
2019-01-25T06:47:03.933Z,90.54
2019-01-25T06:52:21.490Z,91.31
2019-01-25T06:54:59.081Z,91.11
2019-01-25T06:57:41.111Z,91.26
2019-01-25T07:00:30.487Z,91.42
2019-01-25T07:03:09.193Z,91.42
2019-01-25T07:05:45.718Z,91.04
2019-01-25T07:08:17.318Z,90.44
2019-01-25T07:10:48.560Z,90.00
2019-01-25T07:13:30.912Z,88.91
2019-01-25T07:16:04.750Z,86.63
2019-01-25T07:18:41.261Z,83.65
2019-01-25T07:21:13.697Z,82.93
2019-01-25T07:23:43.329Z,84.57
2019-01-25T07:26:16.521Z,82.86
2019-01-25T07:28:49.135Z,80.97
2019-01-25T07:31:30.098Z,78.96
2019-01-25T07:34:15.175Z,76.08
2019-01-25T07:36:52.780Z,76.08
2019-01-25T07:39:31.481Z,75.08
2019-01-25T07:42:19.276Z,74.70
2019-01-25T07:44:54.183Z,73.43
2019-01-25T07:47:29.855Z,72.13
2019-01-25T07:50:04.378Z,72.56
2019-01-25T07:52:38.537Z,71.61
2019-01-25T07:55:12.893Z,68.97
2019-01-25T07:57:47.433Z,68.96
2019-01-25T08:00:17.833Z,68.26
2019-01-25T08:03:01.168Z,67.65
2019-01-25T08:05:38.496Z,66.81
2019-01-25T08:08:11.711Z,66.18
2019-01-25T08:11:09.717Z,67.51
2019-01-25T08:14:05.926Z,66.72
2019-01-25T08:16:47.007Z,66.73
2019-01-25T08:19:43.127Z,65.75
2019-01-25T08:22:38.094Z,64.03
2019-01-25T08:25:29.131Z,64.03
2019-01-25T08:28:16.208Z,61.84
2019-01-25T08:31:10.468Z,64.87
2019-01-25T08:33:53.954Z,63.18
2019-01-25T08:36:37.804Z,63.97
2019-01-25T08:39:36.021Z,62.79
2019-01-25T08:42:39.280Z,62.79
2019-01-25T08:45:35.535Z,62.12
2019-01-25T08:48:15.161Z,60.16
2019-01-25T08:50:52.690Z,60.55
2019-01-25T08:53:28.570Z,59.14
2019-01-25T08:56:15.386Z,59.51
2019-01-25T08:58:52.419Z,59.50
2019-01-25T09:01:36.130Z,59.68
2019-01-25T09:04:16.076Z,59.17
2019-01-25T09:06:50.556Z,57.80
2019-01-25T09:09:24.081Z,57.83
2019-01-25T09:12:07.518Z,57.75
2019-01-25T09:18:05.667Z,58.09
2019-01-25T09:21:20.925Z,59.17
2019-01-25T09:24:04.199Z,61.69
2019-01-25T09:26:39.706Z,62.11
2019-01-25T09:29:30.474Z,63.03
2019-01-25T09:32:22.106Z,64.88
2019-01-25T09:35:20.466Z,63.27
2019-01-25T09:38:11.635Z,65.15
2019-01-25T09:41:08.903Z,65.90
2019-01-25T09:44:02.220Z,65.41
2019-01-25T09:46:50.184Z,65.44
2019-01-25T09:49:31.180Z,66.91
2019-01-25T09:52:23.282Z,64.86
2019-01-25T09:55:28.848Z,63.72
2019-01-25T09:58:29.696Z,62.76
2019-01-25T10:01:11.085Z,64.54
2019-01-25T10:04:16.316Z,63.98
2019-01-25T10:07:17.221Z,64.50
2019-01-25T10:10:01.254Z,64.02
2019-01-25T10:12:43.056Z,64.02
2019-01-25T10:15:29.517Z,63.15
2019-01-25T10:18:03.647Z,63.15
2019-01-25T10:20:40.320Z,63.61
2019-01-25T10:23:39.208Z,64.46
2019-01-25T10:26:10.756Z,65.17
2019-01-25T10:28:45.752Z,64.92
2019-01-25T10:31:30.538Z,63.59
2019-01-25T10:34:19.360Z,62.99
2019-01-25T10:37:14.768Z,63.05
2019-01-25T10:40:04.588Z,62.40
2019-01-25T10:42:59.442Z,61.19
2019-01-25T10:45:42.227Z,58.65
2019-01-25T10:48:23.557Z,57.85
2019-01-25T10:51:08.291Z,59.37
2019-01-25T10:54:09.450Z,57.39
2019-01-25T10:56:49.960Z,56.03
2019-01-25T10:59:30.476Z,56.98
2019-01-25T11:02:04.824Z,57.01
2019-01-25T11:04:48.987Z,56.98
2019-01-25T11:07:42.209Z,56.32
2019-01-25T11:10:22.404Z,53.83
2019-01-25T11:13:01.048Z,54.15
2019-01-25T11:15:55.180Z,53.29
2019-01-25T11:18:32.877Z,53.27
2019-01-25T11:21:03.454Z,53.07
2019-01-25T11:23:48.357Z,53.20
2019-01-25T11:26:35.438Z,54.50
2019-01-25T11:29:30.254Z,53.39
2019-01-25T11:32:33.469Z,52.89
2019-01-25T11:38:18.787Z,55.55
2019-01-25T11:40:52.062Z,53.52
2019-01-25T11:43:26.887Z,54.80
2019-01-25T11:56:00.245Z,51.67
2019-01-25T11:58:34.945Z,52.08
2019-01-25T12:01:09.551Z,53.02
2019-01-25T12:03:46.661Z,52.43
2019-01-25T12:06:52.753Z,51.66
2019-01-25T12:09:23.993Z,52.28
2019-01-25T12:12:12.033Z,52.34
2019-01-25T12:14:48.634Z,52.69
2019-01-25T12:17:25.177Z,51.26
2019-01-25T12:20:02.270Z,54.18
2019-01-25T12:22:32.531Z,54.18
2019-01-25T12:25:18.218Z,52.45
2019-01-25T12:27:57.087Z,52.16
2019-01-25T12:30:29.778Z,53.53
2019-01-25T12:36:45.161Z,52.08
2019-01-25T12:39:49.719Z,53.31
2019-01-25T12:42:34.172Z,53.28
2019-01-25T12:45:50.327Z,54.45
2019-01-25T12:48:36.246Z,55.61
2019-01-25T12:51:11.435Z,56.04
2019-01-25T12:53:47.222Z,57.07
2019-01-25T12:56:37.892Z,57.89
2019-01-25T12:59:40.565Z,57.02
2019-01-25T13:02:22.343Z,58.49
2019-01-25T13:04:54.881Z,59.46
2019-01-25T13:07:38.423Z,60.67
2019-01-25T13:10:24.261Z,61.51
2019-01-25T13:13:00.706Z,61.97
2019-01-25T13:15:38.109Z,61.95
2019-01-25T13:18:14.507Z,63.66
2019-01-25T13:20:52.826Z,63.74
2019-01-25T13:23:34.983Z,62.53
2019-01-25T13:26:12.662Z,60.36
2019-01-25T13:28:54.302Z,58.95
2019-01-25T13:31:29.105Z,59.65
2019-01-25T13:34:05.796Z,59.32
2019-01-25T13:36:41.909Z,60.29
2019-01-25T13:39:25.171Z,57.00
2019-01-25T13:42:03.761Z,56.26
2019-01-25T13:44:36.459Z,56.43
2019-01-25T13:47:30.311Z,54.49
2019-01-25T13:50:16.361Z,55.35
2019-01-25T13:52:55.059Z,52.12
2019-01-25T13:55:38.528Z,52.91
2019-01-25T14:01:46.051Z,52.50
2019-01-25T14:04:31.727Z,53.54
2019-01-25T14:07:36.882Z,54.22
2019-01-25T14:10:39.253Z,55.30
2019-01-25T14:13:34.271Z,55.85
2019-01-25T14:16:11.222Z,56.02
2019-01-25T14:18:45.058Z,56.64
2019-01-25T14:21:35.633Z,55.44
2019-01-25T14:24:32.861Z,55.14
2019-01-25T14:27:18.278Z,55.21
2019-01-25T14:29:55.869Z,55.47
2019-01-25T14:32:36.505Z,54.52
2019-01-25T14:35:12.216Z,56.48
2019-01-25T14:38:03.852Z,58.48
2019-01-25T14:41:09.867Z,58.17
2019-01-25T14:43:54.426Z,57.93
2019-01-25T14:46:32.334Z,58.96
2019-01-25T14:49:28.894Z,60.46
2019-01-25T14:52:21.348Z,61.17
2019-01-25T14:55:12.848Z,61.17
2019-01-25T14:58:01.027Z,61.10
2019-01-25T15:00:49.863Z,61.33
2019-01-25T15:03:50.444Z,62.30
2019-01-25T15:06:32.775Z,61.71
2019-01-25T15:09:14.297Z,62.41
2019-01-25T15:11:51.624Z,61.72
2019-01-25T15:14:25.463Z,62.38
2019-01-25T15:17:01.944Z,59.72
2019-01-25T15:20:06.198Z,59.54
2019-01-25T15:22:54.246Z,59.74
2019-01-25T15:28:17.638Z,60.57
2019-01-25T15:30:50.630Z,60.22
2019-01-25T15:33:38.577Z,61.11
2019-01-25T15:36:21.651Z,61.64
2019-01-25T15:39:17.740Z,60.57
2019-01-25T15:42:15.736Z,61.75
2019-01-25T15:44:55.727Z,59.52
2019-01-25T15:47:59.776Z,59.92
2019-01-25T15:51:01.132Z,61.45
2019-01-25T15:53:53.956Z,60.31
2019-01-25T15:56:39.013Z,60.63
2019-01-25T15:59:17.024Z,61.46
2019-01-25T16:02:01.979Z,60.17
2019-01-25T16:04:42.171Z,61.63
2019-01-25T16:07:22.159Z,60.84
2019-01-25T16:10:02.705Z,61.75
2019-01-25T16:12:51.280Z,61.85
2019-01-25T16:15:30.635Z,61.66
2019-01-25T16:18:15.638Z,60.93
2019-01-25T16:21:08.404Z,61.94
2019-01-25T16:23:52.539Z,61.98
2019-01-25T16:26:35.264Z,60.71
2019-01-25T16:29:23.658Z,61.09
2019-01-25T16:32:11.445Z,59.54
2019-01-25T16:34:46.194Z,59.45
2019-01-25T16:37:33.566Z,59.81
2019-01-25T16:40:08.167Z,60.65
2019-01-25T16:42:44.174Z,60.04
2019-01-25T16:45:20.451Z,58.87
2019-01-25T16:48:02.470Z,59.02
2019-01-25T16:50:39.824Z,58.49
2019-01-25T16:53:13.632Z,58.73
2019-01-25T16:55:50.637Z,58.73
2019-01-25T16:58:25.384Z,57.83
2019-01-25T17:01:04.818Z,58.91
2019-01-25T17:03:43.657Z,59.50
2019-01-25T17:06:22.098Z,58.52
2019-01-25T17:09:00.417Z,58.90
2019-01-25T17:11:34.045Z,59.42
2019-01-25T17:14:04.176Z,58.39
2019-01-25T17:16:45.232Z,58.49
2019-01-25T17:19:21.063Z,58.83
2019-01-25T17:22:01.683Z,58.41
2019-01-25T17:24:43.050Z,59.29
2019-01-25T17:27:23.175Z,59.58
2019-01-25T17:29:58.465Z,58.93
2019-01-25T17:32:37.160Z,59.84
2019-01-25T17:35:11.617Z,60.06
2019-01-25T17:37:43.644Z,59.83
2019-01-25T17:40:21.004Z,58.98
2019-01-25T17:43:00.486Z,58.60
2019-01-25T17:45:33.949Z,58.41
2019-01-25T17:48:14.477Z,58.67
2019-01-25T17:50:51.792Z,57.63
2019-01-25T17:53:27.902Z,58.05
2019-01-25T17:55:58.053Z,57.90
2019-01-25T17:58:30.247Z,58.72
2019-01-25T18:01:04.053Z,59.32
2019-01-25T18:03:45.249Z,59.25
2019-01-25T18:06:25.206Z,58.79
2019-01-25T18:09:02.039Z,58.99
2019-01-25T18:11:40.703Z,59.54
2019-01-25T18:14:21.995Z,59.38
2019-01-25T18:17:01.720Z,59.90
2019-01-25T18:19:40.527Z,61.54
2019-01-25T18:22:23.452Z,62.86
2019-01-25T18:25:03.519Z,63.60
2019-01-25T18:27:47.394Z,63.47
2019-01-25T18:30:35.244Z,63.78
2019-01-25T18:33:19.031Z,64.94
2019-01-25T18:35:55.172Z,65.57
2019-01-25T18:38:38.841Z,66.61
2019-01-25T18:41:09.925Z,68.46
2019-01-25T18:43:42.865Z,70.04
2019-01-25T18:46:16.674Z,71.29
2019-01-25T18:48:52.018Z,71.98
2019-01-25T18:51:28.526Z,72.91
2019-01-25T18:54:03.019Z,72.97
2019-01-25T18:56:38.847Z,73.51
2019-01-25T18:59:16.245Z,73.05
2019-01-25T19:01:57.511Z,74.11
2019-01-25T19:04:38.731Z,74.02
2019-01-25T19:07:22.596Z,74.23
2019-01-25T19:10:08.028Z,74.53
2019-01-25T19:12:46.777Z,73.95
2019-01-25T19:15:33.917Z,74.69
2019-01-25T19:18:14.120Z,74.58
2019-01-25T19:20:47.689Z,74.45
2019-01-25T19:23:17.445Z,74.33
2019-01-25T19:25:47.618Z,74.41
2019-01-25T19:28:19.163Z,74.07
2019-01-25T19:30:48.941Z,73.58
2019-01-25T19:33:23.792Z,73.07
2019-01-25T19:36:03.667Z,72.92
2019-01-25T19:38:36.260Z,73.27
2019-01-25T19:41:10.238Z,73.45
2019-01-25T19:43:53.266Z,73.32
2019-01-25T19:46:24.625Z,73.93
2019-01-25T19:49:03.111Z,73.64
2019-01-25T19:51:43.086Z,74.16
2019-01-25T19:54:14.846Z,74.16
2019-01-25T19:56:53.263Z,74.99
2019-01-25T19:59:24.508Z,74.35
2019-01-25T20:02:00.992Z,74.40
2019-01-25T20:04:57.713Z,74.54
2019-01-25T20:07:41.269Z,74.80
2019-01-25T20:10:20.465Z,74.96
2019-01-25T20:13:03.262Z,75.73
2019-01-25T20:15:42.682Z,75.44
2019-01-25T20:18:13.256Z,76.10
2019-01-25T20:20:43.688Z,75.78
2019-01-25T20:23:27.631Z,76.36
2019-01-25T20:26:05.801Z,76.33
2019-01-25T20:28:41.815Z,77.17
2019-01-25T20:31:14.530Z,77.14
2019-01-25T20:37:03.907Z,76.69
2019-01-25T20:40:00.422Z,77.38
2019-01-25T20:42:47.278Z,77.50
2019-01-25T20:45:53.096Z,76.90
2019-01-25T20:48:51.103Z,77.29
2019-01-25T20:51:40.932Z,77.20
2019-01-25T20:54:14.017Z,77.14
2019-01-25T20:56:59.540Z,76.84
2019-01-25T20:59:30.925Z,77.06
2019-01-25T21:02:02.386Z,77.44
2019-01-25T21:04:36.320Z,77.65
2019-01-25T21:07:17.158Z,77.77
2019-01-25T21:09:51.644Z,77.19
2019-01-25T21:12:45.448Z,77.65
2019-01-25T21:15:26.739Z,77.36
2019-01-25T21:18:01.916Z,77.09
2019-01-25T21:21:00.299Z,76.50
2019-01-25T21:24:02.009Z,76.71
2019-01-25T21:26:45.161Z,77.11
2019-01-25T21:29:31.319Z,76.80
2019-01-25T21:32:15.485Z,77.01
2019-01-25T21:35:13.874Z,77.64
2019-01-25T21:38:09.851Z,77.94
2019-01-25T21:41:12.562Z,77.84
2019-01-25T21:43:58.459Z,77.53
2019-01-25T21:46:49.179Z,77.82
2019-01-25T21:49:32.987Z,78.33
2019-01-25T21:52:43.590Z,78.32
2019-01-25T21:55:36.669Z,78.56
2019-01-25T21:58:42.580Z,78.36
2019-01-25T22:01:18.804Z,78.44
2019-01-25T22:04:01.519Z,78.82
2019-01-25T22:06:43.916Z,78.63
2019-01-25T22:09:44.122Z,78.72
2019-01-25T22:12:42.841Z,79.11
2019-01-25T22:15:19.427Z,78.85
2019-01-25T22:18:02.155Z,78.99
2019-01-25T22:20:44.060Z,78.70
2019-01-25T22:26:46.553Z,78.44
2019-01-25T22:29:38.850Z,79.06
2019-01-25T22:32:36.475Z,79.63
2019-01-25T22:35:27.424Z,80.47
2019-01-25T22:38:21.147Z,81.07
2019-01-25T22:41:08.945Z,81.74
2019-01-25T22:44:00.863Z,81.57
2019-01-25T22:47:20.086Z,82.56
2019-01-25T22:50:05.656Z,83.47
2019-01-25T22:52:51.943Z,84.00
2019-01-25T22:55:59.881Z,84.91
2019-01-25T22:59:08.563Z,85.86
2019-01-25T23:05:31.650Z,87.46
2019-01-25T23:08:28.497Z,88.12
2019-01-25T23:11:05.827Z,88.67
2019-01-25T23:13:57.427Z,88.65
2019-01-25T23:16:59.328Z,89.02
2019-01-25T23:19:38.936Z,88.31
2019-01-25T23:22:27.013Z,87.92
2019-01-25T23:25:10.018Z,87.58
2019-01-25T23:28:00.692Z,87.70
2019-01-25T23:30:53.110Z,87.37
2019-01-25T23:33:57.929Z,87.42
2019-01-25T23:36:51.538Z,87.12
2019-01-25T23:39:36.272Z,86.98
2019-01-25T23:42:17.961Z,85.27
2019-01-25T23:45:05.960Z,85.27
2019-01-25T23:47:55.063Z,84.48
2019-01-25T23:50:39.744Z,84.57
2019-01-25T23:53:35.302Z,84.00
2019-01-25T23:56:15.448Z,83.97
2019-01-25T23:59:06.350Z,83.67
